Time;durP1;ratioP1;P1;durP2;ratioP2;P2;SDS_P1;SDS_P2;PMS_P1;PMS_P2;Temp;Humidity;BMP_temperature;BMP_pressure;BME280_temperature;BME280_humidity;BME280_pressure;Samples;Min_cycle;Max_cycle;Signal;HPM_P1;HPM_P2
2024/04/05 00:00:45;;;;;;;7.03;2.10;;;;;;;11.79;47.78;94206.31;5044596;28;20104;-81
2024/04/05 00:03:11;;;;;;;10.55;2.53;;;;;;;11.75;47.86;94204.59;5044255;28;20315;-81
2024/04/05 00:05:36;;;;;;;6.70;2.13;;;;;;;11.71;47.82;94209.75;5044301;28;20021;-82
2024/04/05 00:08:02;;;;;;;5.07;2.28;;;;;;;11.64;47.69;94215.56;5044541;28;20013;-81
2024/04/05 00:10:28;;;;;;;11.80;1.77;;;;;;;11.59;47.79;94209.56;5044382;28;20249;-81
2024/04/05 00:12:53;;;;;;;5.95;1.70;;;;;;;11.57;48.06;94201.09;5044468;28;20017;-81
2024/04/05 00:15:19;;;;;;;12.52;3.53;;;;;;;11.54;48.05;94201.69;5044300;28;20051;-82
2024/04/05 00:17:45;;;;;;;3.72;1.88;;;;;;;11.51;48.40;94200.44;5044290;28;20028;-82
2024/04/05 00:20:11;;;;;;;4.55;1.75;;;;;;;11.48;48.56;94195.72;5044237;28;20017;-81
2024/04/05 00:22:36;;;;;;;4.75;1.70;;;;;;;11.48;48.41;94202.94;5044108;28;20104;-81
2024/04/05 00:25:02;;;;;;;5.53;1.80;;;;;;;11.42;48.50;94205.75;5043995;28;20030;-81
2024/04/05 00:27:27;;;;;;;7.15;2.20;;;;;;;11.39;48.77;94203.69;5044011;28;20022;-81
2024/04/05 00:29:54;;;;;;;4.03;1.65;;;;;;;11.29;48.87;94195.97;5044058;28;20116;-81
2024/04/05 00:32:20;;;;;;;3.85;1.60;;;;;;;11.29;49.19;94198.63;5044027;28;20021;-81
2024/04/05 00:34:45;;;;;;;4.80;1.17;;;;;;;11.29;49.31;94211.97;5043903;28;20036;-81
2024/04/05 00:37:11;;;;;;;3.75;1.25;;;;;;;11.27;49.25;94200.81;5043598;28;20041;-81
2024/04/05 00:39:37;;;;;;;5.07;1.40;;;;;;;11.23;49.43;94197.19;5042607;28;20049;-81
2024/04/05 00:42:02;;;;;;;12.98;1.73;;;;;;;11.21;50.03;94218.06;5043526;28;20173;-81
2024/04/05 00:44:28;;;;;;;4.28;1.67;;;;;;;11.08;50.18;94209.06;5043662;28;20075;-81
2024/04/05 00:46:54;;;;;;;5.38;1.55;;;;;;;10.98;50.58;94204.78;5043964;28;20066;-81
2024/04/05 00:49:19;;;;;;;4.57;1.55;;;;;;;10.87;50.95;94211.50;5043604;28;20028;-81
2024/04/05 00:51:45;;;;;;;6.32;1.80;;;;;;;10.82;51.19;94206.28;5043407;28;20027;-81
2024/04/05 00:54:11;;;;;;;7.88;1.85;;;;;;;10.74;51.73;94217.69;5043383;28;20024;-81
2024/04/05 00:56:36;;;;;;;6.22;1.65;;;;;;;10.69;51.89;94212.50;5043449;28;20040;-81
2024/04/05 00:59:03;;;;;;;4.18;1.55;;;;;;;10.69;51.89;94225.81;5043435;28;20018;-81
2024/04/05 01:01:29;;;;;;;6.93;1.90;;;;;;;10.61;52.52;94216.66;5042400;28;20063;-81
2024/04/05 01:03:55;;;;;;;4.15;1.83;;;;;;;10.54;52.48;94222.44;5043173;28;20096;-81
2024/04/05 01:06:21;;;;;;;4.97;1.90;;;;;;;10.49;52.91;94233.19;5043234;28;20029;-81
2024/04/05 01:08:46;;;;;;;10.40;1.40;;;;;;;10.49;53.27;94229.75;5043287;28;20034;-81
2024/04/05 01:11:12;;;;;;;9.82;1.77;;;;;;;10.45;53.03;94226.91;5043223;28;20359;-81
2024/04/05 01:13:37;;;;;;;6.40;1.42;;;;;;;10.44;53.46;94233.31;5042944;28;20084;-81
2024/04/05 01:16:06;;;;;;;7.00;1.52;;;;;;;10.43;53.95;94231.75;5043228;28;20025;-81
2024/04/05 01:18:32;;;;;;;8.32;1.50;;;;;;;10.34;54.13;94234.34;5043119;28;20339;-81
2024/04/05 01:21:01;;;;;;;3.63;1.67;;;;;;;10.30;54.25;94235.22;5043013;28;20032;-81
2024/04/05 01:23:28;;;;;;;3.65;1.48;;;;;;;10.21;54.54;94237.81;5043090;28;20025;-81
2024/04/05 01:25:55;;;;;;;5.78;1.63;;;;;;;10.17;54.89;94237.63;5043077;28;20059;-81
2024/04/05 01:28:20;;;;;;;4.32;1.67;;;;;;;10.06;55.29;94246.94;5042855;28;20104;-81
2024/04/05 01:30:46;;;;;;;8.77;2.08;;;;;;;10.04;55.06;94243.78;5042890;28;20029;-81
2024/04/05 01:33:11;;;;;;;3.92;1.50;;;;;;;10.02;55.44;94240.63;5042752;28;20024;-81
2024/04/05 01:35:38;;;;;;;6.43;2.55;;;;;;;9.93;55.75;94243.22;5042629;28;20045;-81
2024/04/05 01:38:03;;;;;;;8.98;2.60;;;;;;;9.94;56.04;94241.34;5042632;28;20307;-81
2024/04/05 01:40:29;;;;;;;5.43;2.05;;;;;;;9.90;55.89;94240.34;5042616;28;20025;-81
2024/04/05 01:42:54;;;;;;;5.88;1.85;;;;;;;9.86;56.14;94240.16;5042670;28;20017;-81
2024/04/05 01:45:20;;;;;;;10.25;2.05;;;;;;;9.86;56.37;94240.16;5042692;28;20033;-81
2024/04/05 01:47:46;;;;;;;5.97;2.03;;;;;;;9.84;56.47;94237.78;5042519;28;20465;-81
2024/04/05 01:50:15;;;;;;;6.30;1.92;;;;;;;9.76;56.54;94233.16;5042423;28;20119;-81
2024/04/05 01:52:41;;;;;;;7.13;1.70;;;;;;;9.75;56.80;94236.13;5042402;28;20048;-81
2024/04/05 01:55:06;;;;;;;7.43;2.10;;;;;;;9.72;56.91;94242.84;5042445;28;20276;-81
2024/04/05 01:57:36;;;;;;;4.75;2.03;;;;;;;9.69;57.08;94240.78;5042457;28;20051;-81
2024/04/05 02:00:03;;;;;;;9.75;2.10;;;;;;;9.69;57.33;94243.44;5042257;28;20079;-81
2024/04/05 02:02:28;;;;;;;5.38;1.83;;;;;;;9.62;57.42;94248.38;5042484;28;20021;-81
2024/04/05 02:04:54;;;;;;;11.00;1.83;;;;;;;9.60;57.64;94246.00;5042492;28;20220;-81
2024/04/05 02:07:23;;;;;;;4.13;1.60;;;;;;;9.57;57.50;94243.16;5042314;28;20056;-81
2024/04/05 02:09:51;;;;;;;5.00;1.90;;;;;;;9.53;57.54;94244.84;5042213;28;20036;-79
2024/04/05 02:12:18;;;;;;;3.50;1.55;;;;;;;9.53;57.73;94248.28;5041814;28;20033;-80
2024/04/05 02:14:44;;;;;;;5.70;2.13;;;;;;;9.51;57.93;94247.00;5040961;28;20319;-80
2024/04/05 02:17:09;;;;;;;5.72;1.58;;;;;;;9.46;58.11;94247.09;5042524;28;20093;-80
2024/04/05 02:19:35;;;;;;;7.53;1.45;;;;;;;9.40;58.17;94257.84;5042138;28;20065;-80
2024/04/05 02:22:00;;;;;;;6.85;1.73;;;;;;;9.32;57.94;94257.72;5041946;28;20419;-80
2024/04/05 02:24:26;;;;;;;4.13;1.67;;;;;;;9.30;57.78;94252.72;5041955;28;20033;-80
2024/04/05 02:26:51;;;;;;;5.28;2.30;;;;;;;9.29;57.92;94253.78;5042258;28;20029;-80
2024/04/05 02:29:17;;;;;;;4.53;1.55;;;;;;;9.31;57.63;94258.81;5041972;28;20025;-80
2024/04/05 02:31:43;;;;;;;6.05;1.50;;;;;;;9.29;57.79;94258.34;5042091;28;20116;-80
2024/04/05 02:34:08;;;;;;;5.28;1.98;;;;;;;9.30;57.72;94266.03;5041869;28;20196;-80
2024/04/05 02:36:34;;;;;;;3.60;1.63;;;;;;;9.28;58.15;94270.84;5041760;28;20051;-80
2024/04/05 02:38:59;;;;;;;8.82;1.88;;;;;;;9.29;58.15;94269.75;5041906;28;20079;-81
2024/04/05 02:41:24;;;;;;;6.32;2.05;;;;;;;9.33;57.61;94268.09;5042006;28;20022;-80
2024/04/05 02:43:50;;;;;;;5.93;1.73;;;;;;;9.26;58.18;94266.88;5041725;28;20025;-80
2024/04/05 02:46:15;;;;;;;6.53;1.85;;;;;;;9.25;57.94;94268.75;5040683;28;20432;-81
2024/04/05 02:48:41;;;;;;;6.25;2.05;;;;;;;9.23;58.31;94269.06;5041795;28;20067;-80
2024/04/05 02:51:06;;;;;;;8.25;2.20;;;;;;;9.20;58.55;94267.00;5041935;28;20108;-80
2024/04/05 02:53:32;;;;;;;8.60;2.42;;;;;;;9.19;58.91;94272.59;5041808;28;20020;-79
2024/04/05 02:55:58;;;;;;;5.80;2.60;;;;;;;9.21;58.34;94262.47;5041942;28;20029;-80
2024/04/05 02:58:23;;;;;;;12.10;2.90;;;;;;;9.20;58.46;94269.66;5041810;28;20029;-79
2024/04/05 03:00:54;;;;;;;5.95;2.70;;;;;;;9.20;58.79;94261.69;5041710;28;20017;-81
2024/04/05 03:03:19;;;;;;;8.30;2.45;;;;;;;9.18;58.59;94253.19;5040695;28;20037;-82
2024/04/05 03:05:45;;;;;;;7.55;2.85;;;;;;;9.21;58.88;94262.47;5040359;28;20112;-81
2024/04/05 03:08:10;;;;;;;5.68;3.30;;;;;;;9.19;58.57;94270.72;5040093;28;20030;-81
2024/04/05 03:10:35;;;;;;;5.05;3.13;;;;;;;9.19;58.77;94269.94;5040982;28;20014;-82
2024/04/05 03:13:01;;;;;;;8.77;3.08;;;;;;;9.18;58.69;94263.84;5041561;28;20048;-81
2024/04/05 03:15:26;;;;;;;5.78;2.67;;;;;;;9.13;58.98;94261.25;5041581;28;20013;-81
2024/04/05 03:17:52;;;;;;;8.43;2.40;;;;;;;9.12;58.82;94256.22;5041724;28;20025;-82
2024/04/05 03:20:18;;;;;;;9.38;2.47;;;;;;;9.10;59.05;94266.38;5041511;28;20136;-81
2024/04/05 03:22:44;;;;;;;9.63;3.40;;;;;;;9.07;59.10;94280.25;5041603;28;20029;-81
2024/04/05 03:25:09;;;;;;;9.48;2.35;;;;;;;9.04;59.45;94277.09;5043289;28;20048;-82
2024/04/05 03:27:35;;;;;;;9.60;2.03;;;;;;;9.05;59.09;94275.22;5045198;28;20033;-81
2024/04/05 03:30:02;;;;;;;6.70;2.50;;;;;;;9.08;58.84;94273.84;5044448;28;20086;-81
2024/04/05 03:32:27;;;;;;;3.67;1.83;;;;;;;9.13;59.49;94281.75;5045218;28;20044;-81
2024/04/05 03:34:53;;;;;;;7.43;2.78;;;;;;;9.11;59.64;94281.25;5044934;28;20014;-81
2024/04/05 03:37:18;;;;;;;6.47;2.10;;;;;;;9.03;59.69;94288.03;5044997;28;20056;-82
2024/04/05 03:39:44;;;;;;;7.47;2.05;;;;;;;9.01;59.57;94279.56;5044832;28;20198;-82
2024/04/05 03:42:09;;;;;;;5.55;2.08;;;;;;;9.04;59.37;94282.44;5044756;28;20025;-81
2024/04/05 03:44:35;;;;;;;6.40;1.63;;;;;;;9.07;59.25;94273.06;5044797;28;20223;-81
2024/04/05 03:47:01;;;;;;;9.55;2.15;;;;;;;9.03;59.49;94275.50;5045041;28;20040;-81
2024/04/05 03:49:28;;;;;;;9.93;1.75;;;;;;;9.01;59.63;94283.00;5045092;28;20110;-82
2024/04/05 03:51:54;;;;;;;7.68;1.73;;;;;;;9.00;59.91;94286.75;5045006;28;20063;-82
2024/04/05 03:54:20;;;;;;;10.35;2.13;;;;;;;9.02;60.04;94289.91;5044715;28;20017;-81
2024/04/05 03:56:45;;;;;;;7.35;1.58;;;;;;;9.03;59.88;94298.66;5044659;28;20036;-81
2024/04/05 03:59:11;;;;;;;5.05;2.00;;;;;;;9.02;59.62;94287.25;5044801;28;20029;-82
2024/04/05 04:01:36;;;;;;;4.50;1.80;;;;;;;9.01;59.94;94298.94;5044698;28;20021;-82
2024/04/05 04:04:01;;;;;;;11.18;1.92;;;;;;;9.07;60.02;94298.88;5044407;28;20029;-82
2024/04/05 04:06:27;;;;;;;5.03;1.83;;;;;;;9.09;59.43;94300.16;5044338;28;20026;-83
2024/04/05 04:08:52;;;;;;;8.30;1.63;;;;;;;9.11;58.91;94300.66;5044697;28;20027;-82
2024/04/05 04:11:17;;;;;;;6.68;1.80;;;;;;;9.13;58.96;94303.03;5044369;28;20032;-82
2024/04/05 04:13:43;;;;;;;8.85;1.60;;;;;;;9.19;59.06;94299.19;5044359;28;20087;-82
2024/04/05 04:16:09;;;;;;;12.60;1.60;;;;;;;9.22;58.96;94301.28;5044404;28;20331;-82
2024/04/05 04:18:35;;;;;;;7.03;1.85;;;;;;;9.26;58.96;94307.59;5044514;28;20037;-82
2024/04/05 04:21:02;;;;;;;6.50;1.52;;;;;;;9.32;58.71;94310.94;5044195;28;20095;-82
2024/04/05 04:23:28;;;;;;;9.20;1.60;;;;;;;9.36;58.74;94318.06;5044112;28;20048;-82
2024/04/05 04:25:55;;;;;;;3.40;1.58;;;;;;;9.45;58.46;94312.84;5044525;28;20017;-81
2024/04/05 04:28:22;;;;;;;9.43;1.70;;;;;;;9.55;57.84;94314.53;5044572;28;20025;-82
2024/04/05 04:30:47;;;;;;;4.82;1.38;;;;;;;9.64;57.41;94326.03;5044476;28;20033;-80
2024/04/05 04:33:13;;;;;;;5.05;1.70;;;;;;;9.73;57.49;94321.63;5043036;28;20025;-80
2024/04/05 04:35:43;;;;;;;6.32;2.42;;;;;;;9.81;57.90;94326.25;5043543;28;20052;-81
2024/04/05 04:38:08;;;;;;;18.08;2.50;;;;;;;9.88;58.03;94333.06;5043887;28;20025;-80
2024/04/05 04:40:34;;;;;;;8.25;1.92;;;;;;;9.91;59.25;94325.28;5043849;28;20017;-80
2024/04/05 04:43:00;;;;;;;8.23;1.98;;;;;;;9.90;59.85;94330.88;5044039;28;20215;-81
2024/04/05 04:45:25;;;;;;;7.70;2.08;;;;;;;9.92;58.81;94328.72;5044317;28;20090;-82
2024/04/05 04:47:50;;;;;;;13.73;3.33;;;;;;;9.89;58.07;94335.44;5043912;28;20021;-81
2024/04/05 04:50:16;;;;;;;20.10;2.60;;;;;;;9.91;57.99;94332.44;5043822;28;20021;-82
2024/04/05 04:52:41;;;;;;;17.83;3.33;;;;;;;9.94;58.12;94334.53;5043726;28;20346;-82
2024/04/05 04:55:09;;;;;;;24.88;4.07;;;;;;;9.97;58.39;94342.72;5043493;28;20018;-82
2024/04/05 04:57:34;;;;;;;20.50;3.22;;;;;;;9.95;58.10;94341.41;5043309;28;20017;-81
2024/04/05 05:00:00;;;;;;;11.48;2.95;;;;;;;10.01;58.25;94338.38;5043527;28;20024;-81
2024/04/05 05:02:25;;;;;;;23.67;3.35;;;;;;;10.10;58.28;94345.66;5043440;28;20017;-81
2024/04/05 05:04:50;;;;;;;10.95;3.72;;;;;;;10.17;57.70;94348.72;5042262;28;20021;-82
2024/04/05 05:07:16;;;;;;;19.88;2.78;;;;;;;10.21;57.24;94353.13;5041427;28;20323;-81
2024/04/05 05:09:41;;;;;;;20.30;3.08;;;;;;;10.25;56.81;94353.34;5041140;28;20055;-81
2024/04/05 05:12:07;;;;;;;11.82;3.50;;;;;;;10.36;56.51;94353.94;5042184;28;20018;-81
2024/04/05 05:14:32;;;;;;;17.58;3.65;;;;;;;10.41;56.73;94356.50;5041963;28;20021;-82
2024/04/05 05:16:58;;;;;;;23.35;4.53;;;;;;;10.43;56.36;94359.66;5043417;28;20071;-82
2024/04/05 05:19:23;;;;;;;11.50;3.75;;;;;;;10.43;56.14;94355.09;5041921;28;20184;-82
2024/04/05 05:21:49;;;;;;;18.15;3.33;;;;;;;10.48;56.00;94364.09;5042953;28;20021;-82
2024/04/05 05:24:14;;;;;;;11.13;2.92;;;;;;;10.51;55.81;94366.94;5041687;28;20063;-82
2024/04/05 05:26:40;;;;;;;7.68;2.67;;;;;;;10.53;55.56;94370.09;5042945;28;20024;-82
2024/04/05 05:29:05;;;;;;;10.90;2.83;;;;;;;10.61;55.50;94376.59;5042125;28;20018;-82
2024/04/05 05:31:30;;;;;;;13.32;4.18;;;;;;;10.62;55.08;94378.97;5042297;28;20053;-82
2024/04/05 05:33:57;;;;;;;17.33;4.57;;;;;;;10.65;55.17;94372.25;5042720;28;20029;-83
2024/04/05 05:36:22;;;;;;;22.65;4.47;;;;;;;10.67;55.15;94379.94;5042756;28;20337;-82
2024/04/05 05:38:48;;;;;;;15.60;3.88;;;;;;;10.70;55.08;94372.13;5042579;28;20036;-82
2024/04/05 05:41:13;;;;;;;19.70;3.75;;;;;;;10.69;55.47;94375.09;5042596;28;20032;-82
2024/04/05 05:43:39;;;;;;;14.55;3.92;;;;;;;10.77;55.44;94385.06;5042542;28;20365;-80
2024/04/05 05:46:19;;;;;;;20.55;4.25;;;;;;;10.88;55.01;94381.06;5042462;28;20385;-81
2024/04/05 05:48:44;;;;;;;33.53;4.15;;;;;;;10.91;55.26;94375.13;5042100;28;20037;-80
2024/04/05 05:51:10;;;;;;;21.27;4.25;;;;;;;11.03;55.35;94375.38;5043211;28;20067;-80
2024/04/05 05:53:35;;;;;;;16.08;4.20;;;;;;;11.13;55.30;94382.34;5042847;28;20255;-80
2024/04/05 05:56:02;;;;;;;6.15;3.58;;;;;;;11.25;54.69;94373.78;5043263;28;20374;-81
2024/04/05 05:58:28;;;;;;;7.75;2.80;;;;;;;11.35;54.51;94384.22;5041774;28;20033;-80
2024/04/05 06:00:54;;;;;;;20.13;3.65;;;;;;;11.45;54.07;94393.84;5042793;28;20069;-80
2024/04/05 06:03:19;;;;;;;16.45;3.80;;;;;;;11.57;54.08;94387.97;5042619;28;20092;-80
2024/04/05 06:05:51;;;;;;;21.50;3.78;;;;;;;11.69;54.24;94390.06;5041416;28;20021;-81
2024/04/05 06:08:16;;;;;;;16.52;4.88;;;;;;;11.78;53.89;94390.88;5041347;28;20040;-81
2024/04/05 06:10:42;;;;;;;18.63;3.72;;;;;;;11.81;54.01;94391.06;5042746;28;20096;-80
2024/04/05 06:13:07;;;;;;;7.53;3.25;;;;;;;11.87;53.80;94389.06;5042412;28;20303;-81
2024/04/05 06:15:33;;;;;;;9.00;3.17;;;;;;;11.93;53.92;94387.06;5041450;28;20032;-80
2024/04/05 06:17:58;;;;;;;10.77;3.38;;;;;;;11.98;53.50;94394.94;5042549;28;20028;-80
2024/04/05 06:20:23;;;;;;;14.98;3.63;;;;;;;12.08;53.17;94391.97;5042758;28;20316;-80
2024/04/05 06:22:49;;;;;;;22.27;3.33;;;;;;;12.15;51.47;94387.00;5042784;28;20045;-80
2024/04/05 06:25:14;;;;;;;14.30;4.18;;;;;;;12.18;51.49;94394.38;5042836;28;20168;-80
2024/04/05 06:27:41;;;;;;;26.15;3.75;;;;;;;12.21;51.77;94396.44;5042564;28;20017;-80
2024/04/05 06:30:09;;;;;;;14.18;3.10;;;;;;;12.29;50.92;94396.75;5042006;28;20315;-81
2024/04/05 06:32:34;;;;;;;19.92;3.63;;;;;;;12.37;50.50;94402.13;5041354;28;20100;-80
2024/04/05 06:34:59;;;;;;;14.63;3.90;;;;;;;12.41;49.96;94400.41;5042490;28;20027;-80
2024/04/05 06:37:26;;;;;;;18.67;3.50;;;;;;;12.47;50.42;94402.94;5042575;28;20252;-80
2024/04/05 06:39:54;;;;;;;11.68;3.78;;;;;;;12.48;49.89;94408.00;5042511;28;20074;-80
2024/04/05 06:42:23;;;;;;;29.50;4.82;;;;;;;12.52;49.67;94408.16;5042520;28;20033;-81
2024/04/05 06:44:52;;;;;;;23.33;3.60;;;;;;;12.57;49.69;94413.34;5042581;28;20266;-80
2024/04/05 06:47:18;;;;;;;16.58;3.85;;;;;;;12.64;49.52;94413.69;5042414;28;20243;-80
2024/04/05 06:49:43;;;;;;;19.95;4.35;;;;;;;12.70;49.60;94425.00;5042259;28;20144;-86
2024/04/05 06:52:10;;;;;;;13.60;3.72;;;;;;;12.72;49.69;94428.16;5042718;28;20025;-87
2024/04/05 06:54:42;;;;;;;14.18;4.68;;;;;;;12.81;49.93;94427.09;5042726;28;20052;-85
2024/04/05 06:57:09;;;;;;;15.02;4.30;;;;;;;12.88;49.05;94434.63;5042916;28;20074;-86
2024/04/05 06:59:34;;;;;;;13.75;4.25;;;;;;;12.97;49.23;94440.78;5075701;28;20029;-87
2024/04/05 07:01:59;;;;;;;16.77;4.15;;;;;;;13.08;49.79;94448.50;5045483;28;20314;-85
2024/04/05 07:04:26;;;;;;;17.08;4.10;;;;;;;13.17;49.84;94449.31;5046518;28;20040;-85
2024/04/05 07:06:58;;;;;;;28.45;4.63;;;;;;;13.22;48.44;94455.28;5048435;28;20075;-96
2024/04/05 07:09:30;;;;;;;25.25;4.88;;;;;;;13.25;48.32;94448.53;5053559;28;20053;-96
2024/04/05 07:11:58;;;;;;;19.77;4.65;;;;;;;13.25;48.66;94443.97;5051565;28;20064;-95
2024/04/05 07:14:23;;;;;;;15.68;3.80;;;;;;;13.36;48.92;94441.00;5049567;28;20041;-83
2024/04/05 07:16:48;;;;;;;27.77;4.05;;;;;;;13.41;48.62;94444.31;5046089;28;20029;-82
2024/04/05 07:19:17;;;;;;;13.73;4.32;;;;;;;13.57;47.80;94444.59;5045975;28;20025;-79
2024/04/05 07:21:47;;;;;;;12.43;3.80;;;;;;;13.78;47.44;94452.75;5045871;28;20040;-81
2024/04/05 07:24:13;;;;;;;16.52;4.28;;;;;;;13.79;46.31;94448.19;5045549;28;20312;-81
2024/04/05 07:26:39;;;;;;;14.68;3.42;;;;;;;13.89;46.15;94441.72;5045949;28;20097;-84
2024/04/05 07:29:05;;;;;;;14.50;3.67;;;;;;;14.03;46.08;94436.94;5045870;28;20029;-82
2024/04/05 07:31:33;;;;;;;12.13;3.75;;;;;;;14.12;45.93;94439.56;5045874;28;20029;-82
2024/04/05 07:33:58;;;;;;;23.33;4.18;;;;;;;14.19;45.86;94446.03;5045732;28;20048;-83
2024/04/05 07:36:25;;;;;;;17.50;3.55;;;;;;;14.31;45.67;94436.50;5045890;28;20332;-82
2024/04/05 07:38:51;;;;;;;15.32;3.35;;;;;;;14.39;46.05;94443.72;5077923;28;20021;-85
2024/04/05 07:41:17;;;;;;;11.13;3.13;;;;;;;14.46;45.21;94444.03;5045632;28;20029;-82
2024/04/05 07:43:43;;;;;;;14.02;3.63;;;;;;;14.58;44.97;94440.69;5045541;28;20215;-82
2024/04/05 07:46:08;;;;;;;20.23;4.32;;;;;;;14.63;45.19;94441.28;5045094;28;20096;-82
2024/04/05 07:48:33;;;;;;;10.93;2.92;;;;;;;14.82;44.36;94446.22;5045620;28;20135;-83
2024/04/05 07:51:00;;;;;;;12.40;3.13;;;;;;;14.91;43.19;94448.06;5044186;28;20028;-82
2024/04/05 07:53:25;;;;;;;10.48;3.13;;;;;;;14.98;43.19;94443.75;5045428;28;20013;-82
2024/04/05 07:55:51;;;;;;;17.63;3.88;;;;;;;15.13;42.88;94455.81;5045134;28;20303;-82
2024/04/05 07:58:17;;;;;;;17.00;3.42;;;;;;;15.14;42.77;94448.53;5045114;28;20053;-82
2024/04/05 08:00:42;;;;;;;18.45;3.72;;;;;;;15.27;42.48;94460.94;5044941;28;20025;-83
2024/04/05 08:03:08;;;;;;;16.92;3.88;;;;;;;15.33;41.79;94453.47;5044975;28;20137;-82
2024/04/05 08:05:36;;;;;;;12.13;3.30;;;;;;;15.42;41.60;94446.09;5044818;28;20053;-82
2024/04/05 08:08:02;;;;;;;13.73;3.28;;;;;;;15.57;41.74;94440.13;5044852;28;20075;-82
2024/04/05 08:10:30;;;;;;;11.57;3.30;;;;;;;15.75;41.13;94438.13;5043086;28;20021;-82
2024/04/05 08:12:56;;;;;;;20.73;2.72;;;;;;;15.88;40.81;94443.53;5045252;28;20021;-79
2024/04/05 08:15:22;;;;;;;15.13;3.95;;;;;;;16.07;39.53;94443.78;5045053;28;20033;-86
2024/04/05 08:17:47;;;;;;;12.45;2.42;;;;;;;16.14;39.25;94457.47;5045179;28;20217;-84
2024/04/05 08:20:13;;;;;;;7.57;2.22;;;;;;;16.12;39.15;94451.63;5044996;28;20022;-85
2024/04/05 08:22:38;;;;;;;16.38;2.38;;;;;;;16.15;38.85;94450.97;5043749;28;20207;-84
2024/04/05 08:25:07;;;;;;;22.00;3.72;;;;;;;16.30;39.96;94438.75;5044786;28;20045;-84
2024/04/05 08:27:33;;;;;;;14.43;2.63;;;;;;;16.50;38.49;94449.78;5044962;28;20061;-89
2024/04/05 08:29:59;;;;;;;11.05;2.50;;;;;;;16.61;38.96;94449.00;5044704;28;20045;-86
2024/04/05 08:32:24;;;;;;;8.95;2.10;;;;;;;16.76;38.54;94442.13;5044331;28;20160;-83
2024/04/05 08:34:50;;;;;;;11.63;2.25;;;;;;;16.95;38.48;94446.97;5044886;28;20079;-90
2024/04/05 08:37:15;;;;;;;17.33;3.75;;;;;;;17.16;37.00;94441.44;5045633;28;20049;-80
2024/04/05 08:39:41;;;;;;;7.60;1.58;;;;;;;17.22;35.56;94432.00;5044662;28;20052;-89
2024/04/05 08:42:12;;;;;;;3.92;1.27;;;;;;;17.41;34.91;94441.38;5043287;28;20032;-85
2024/04/05 08:44:39;;;;;;;17.52;1.60;;;;;;;17.49;33.76;94428.91;5043156;28;20017;-85
2024/04/05 08:47:08;;;;;;;5.53;0.90;;;;;;;17.46;33.36;94422.25;5044826;28;20025;-84
2024/04/05 08:49:33;;;;;;;6.25;1.40;;;;;;;17.49;34.33;94428.91;5044115;28;20017;-85
2024/04/05 08:52:00;;;;;;;6.30;1.52;;;;;;;17.62;33.86;94427.72;5044477;28;20100;-84
2024/04/05 08:54:28;;;;;;;7.30;1.20;;;;;;;17.65;34.03;94432.44;5044300;28;20016;-85
2024/04/05 08:56:55;;;;;;;4.78;1.50;;;;;;;17.71;33.91;94417.56;5044230;28;20028;-83
2024/04/05 08:59:28;;;;;;;4.07;0.98;;;;;;;17.68;33.16;94425.56;5042061;28;20017;-83
2024/04/05 09:01:55;;;;;;;6.38;1.13;;;;;;;17.74;34.19;94438.44;5042645;28;20028;-78
2024/04/05 09:04:20;;;;;;;2.08;0.70;;;;;;;17.73;32.94;94428.78;5041749;28;20132;-78
2024/04/05 09:06:45;;;;;;;5.85;1.08;;;;;;;17.76;33.21;94422.69;5042325;28;20155;-78
2024/04/05 09:09:11;;;;;;;2.95;0.73;;;;;;;17.79;32.98;94427.41;5041686;28;20101;-78
2024/04/05 09:11:37;;;;;;;6.55;1.38;;;;;;;17.88;32.83;94421.88;5041653;28;20021;-77
2024/04/05 09:14:03;;;;;;;8.32;1.20;;;;;;;17.98;32.84;94431.41;5040625;28;20022;-78
2024/04/05 09:16:31;;;;;;;6.40;1.60;;;;;;;18.08;33.34;94427.41;5041475;28;20028;-77
2024/04/05 09:19:09;;;;;;;2.50;0.60;;;;;;;18.14;31.13;94431.41;5041995;28;20048;-77
2024/04/05 09:21:41;;;;;;;6.00;1.20;;;;;;;18.22;31.31;94431.25;5041277;28;20096;-78
2024/04/05 09:24:07;;;;;;;3.42;0.65;;;;;;;18.27;30.65;94429.41;5042266;28;20044;-78
2024/04/05 09:26:33;;;;;;;5.90;0.65;;;;;;;18.28;32.09;94422.88;5043453;28;20033;-78
2024/04/05 09:29:02;;;;;;;4.13;0.75;;;;;;;18.35;31.35;94414.97;5043582;28;20093;-77
2024/04/05 09:31:29;;;;;;;8.32;1.40;;;;;;;18.44;31.56;94416.38;5042919;28;20052;-78
2024/04/05 09:34:14;;;;;;;5.95;1.10;;;;;;;18.52;30.84;94409.22;5043395;28;20063;-78
2024/04/05 09:36:40;;;;;;;6.13;1.30;;;;;;;18.63;31.11;94426.44;5042946;28;20244;-77
2024/04/05 09:39:09;;;;;;;7.40;0.80;;;;;;;18.65;29.67;94431.50;5042997;28;20041;-78
2024/04/05 09:41:35;;;;;;;2.78;0.75;;;;;;;18.67;30.16;94444.66;5043480;28;20204;-78
2024/04/05 09:44:06;;;;;;;1.95;0.70;;;;;;;18.65;30.38;94426.88;5042815;28;20033;-78
2024/04/05 09:46:32;;;;;;;1.67;0.50;;;;;;;18.61;30.27;94433.31;5042652;28;20033;-78
2024/04/05 09:49:00;;;;;;;1.52;0.60;;;;;;;18.57;30.34;94430.53;5042896;28;20025;-78
2024/04/05 09:51:39;;;;;;;4.03;0.82;;;;;;;18.63;31.13;94425.66;5041688;28;20139;-78
2024/04/05 09:54:07;;;;;;;5.82;0.88;;;;;;;18.77;30.11;94433.31;5042560;28;20223;-78
2024/04/05 09:56:33;;;;;;;7.00;1.02;;;;;;;18.89;29.57;94427.84;5042762;28;20099;-78
2024/04/05 09:59:00;;;;;;;2.03;0.35;;;;;;;18.87;30.88;94434.69;5042653;28;20044;-78
2024/04/05 10:01:26;;;;;;;2.47;0.82;;;;;;;18.44;30.94;94421.75;5042497;28;20033;-78
2024/04/05 10:03:52;;;;;;;11.82;1.38;;;;;;;18.56;31.54;94420.88;5042506;28;20045;-78
2024/04/05 10:06:18;;;;;;;2.88;0.80;;;;;;;18.79;31.26;94428.38;5042547;28;20044;-78
2024/04/05 10:08:43;;;;;;;6.60;0.57;;;;;;;19.09;31.63;94419.75;5042653;28;20207;-78
2024/04/05 10:11:14;;;;;;;4.10;1.00;;;;;;;19.37;30.74;94414.94;5042477;28;20013;-78
2024/04/05 10:13:41;;;;;;;2.13;0.75;;;;;;;19.47;30.03;94418.22;5042171;28;20020;-78
2024/04/05 10:16:11;;;;;;;2.38;0.70;;;;;;;19.60;30.33;94416.94;5042318;28;20018;-78
2024/04/05 10:18:39;;;;;;;8.60;1.10;;;;;;;19.63;30.25;94405.41;5042333;28;20040;-78
2024/04/05 10:21:09;;;;;;;5.55;1.80;;;;;;;19.70;29.65;94408.28;5042394;28;20025;-78
2024/04/05 10:23:36;;;;;;;2.97;0.50;;;;;;;19.66;29.58;94404.69;5042068;28;20043;-78
2024/04/05 10:26:03;;;;;;;1.23;0.47;;;;;;;19.29;29.96;94404.34;5041275;28;20193;-78
2024/04/05 10:28:29;;;;;;;1.23;0.40;;;;;;;19.26;30.05;94402.38;5042162;28;20025;-78
2024/04/05 10:30:55;;;;;;;0.88;0.43;;;;;;;19.15;30.12;94402.13;5042376;28;20022;-77
2024/04/05 10:33:21;;;;;;;5.25;0.80;;;;;;;19.03;29.60;94400.34;5041607;28;20029;-78
2024/04/05 10:35:51;;;;;;;1.58;0.70;;;;;;;19.09;29.92;94398.16;5046020;28;20057;-78
2024/04/05 10:38:16;;;;;;;2.03;0.70;;;;;;;19.16;29.35;94395.59;5046239;28;20109;-78
2024/04/05 10:40:57;;;;;;;1.95;0.80;;;;;;;19.27;29.53;94387.72;5046308;28;20029;-78
2024/04/05 10:43:22;;;;;;;2.00;1.00;;;;;;;19.35;29.76;94395.59;5046265;28;20021;-80
2024/04/05 10:45:51;;;;;;;1.15;0.50;;;;;;;19.42;29.34;94390.34;5046315;28;20021;-79
2024/04/05 10:48:17;;;;;;;13.85;1.00;;;;;;;19.51;29.51;94398.22;5046141;28;20022;-79
2024/04/05 10:50:42;;;;;;;17.75;2.55;;;;;;;19.58;30.52;94390.28;5046115;28;20026;-78
2024/04/05 10:53:08;;;;;;;3.70;0.70;;;;;;;19.84;29.72;94381.53;5046071;28;20260;-78
2024/04/05 10:55:33;;;;;;;7.40;1.05;;;;;;;20.13;29.32;94382.03;5045998;28;20048;-78
2024/04/05 10:58:05;;;;;;;5.40;1.08;;;;;;;20.44;29.22;94385.59;5045752;28;20021;-78
2024/04/05 11:00:33;;;;;;;9.32;1.10;;;;;;;20.73;28.71;94386.06;5045782;28;20025;-77
2024/04/05 11:02:59;;;;;;;4.88;0.88;;;;;;;21.04;28.74;94374.09;5045920;28;20029;-76
2024/04/05 11:05:24;;;;;;;8.13;0.93;;;;;;;21.24;27.74;94378.25;5045700;28;20048;-76
2024/04/05 11:08:00;;;;;;;12.93;1.45;;;;;;;21.30;27.30;94372.50;5045808;28;20028;-77
2024/04/05 11:10:33;;;;;;;5.30;1.42;;;;;;;21.08;26.01;94376.88;5045817;28;20308;-76
2024/04/05 11:13:01;;;;;;;5.55;0.80;;;;;;;20.88;26.36;94389.75;5044398;28;20041;-76
2024/04/05 11:15:26;;;;;;;1.08;0.57;;;;;;;20.67;26.73;94380.19;5045738;28;20215;-76
2024/04/05 11:18:03;;;;;;;4.78;0.70;;;;;;;20.57;26.57;94386.19;5046070;28;20033;-77
2024/04/05 11:20:32;;;;;;;1.88;0.82;;;;;;;20.39;26.72;94389.41;5045428;28;20036;-76
2024/04/05 11:23:02;;;;;;;1.42;0.60;;;;;;;20.24;26.86;94390.31;5045573;28;20021;-76
2024/04/05 11:25:27;;;;;;;1.85;0.55;;;;;;;20.20;27.26;94390.25;5045339;28;20025;-76
2024/04/05 11:27:53;;;;;;;18.45;2.60;;;;;;;20.15;28.92;94390.56;5045619;28;20201;-76